This is the latest recevied weather packets stored in our database for station/object R1ZCU-14. If no packets are shown the sender has not sent any weather packets the latest 10 day(s).
| Time | Temp. | Humidity | Pressure | Rain* | Wind** | Luminosity | Snow |
|---|---|---|---|---|---|---|---|
| 1778170471 | 5° C | 58% | 1010.3 hPa | - | - | - | - |
| 1778169871 | 5.56° C | 58% | 1010.2 hPa | - | - | - | - |
| 1778169271 | 5.56° C | 60% | 1010.2 hPa | - | - | - | - |
| 1778168670 | 5° C | 61% | 1010.2 hPa | - | - | - | - |
| 1778168069 | 5° C | 61% | 1010.3 hPa | - | - | - | - |
| 1778167469 | 5° C | 60% | 1010.2 hPa | - | - | - | - |
| 1778166869 | 5° C | 59% | 1010.2 hPa | - | - | - | - |
| 1778166268 | 5.56° C | 55% | 1009.9 hPa | - | - | - | - |
| 1778165668 | 5.56° C | 53% | 1009.9 hPa | - | - | - | - |
| 1778165067 | 6.11° C | 49% | 1009.8 hPa | - | - | - | - |
| 1778164466 | 6.11° C | 48% | 1009.7 hPa | - | - | - | - |
| 1778163866 | 6.11° C | 48% | 1009.8 hPa | - | - | - | - |
| 1778163265 | 6.11° C | 48% | 1009.6 hPa | - | - | - | - |
| 1778162665 | 6.11° C | 47% | 1009.5 hPa | - | - | - | - |
| 1778162064 | 7.22° C | 44% | 1009.4 hPa | - | - | - | - |
| 1778161464 | 7.78° C | 40% | 1009.3 hPa | - | - | - | - |
| 1778160864 | 7.78° C | 36% | 1009.2 hPa | - | - | - | - |
| 1778160263 | 7.78° C | 37% | 1009.2 hPa | - | - | - | - |
| 1778159662 | 7.78° C | 37% | 1009.1 hPa | - | - | - | - |
| 1778159062 | 7.78° C | 38% | 1009 hPa | - | - | - | - |
| 1778158461 | 7.78° C | 37% | 1009.1 hPa | - | - | - | - |
| 1778157861 | 8.89° C | 35% | 1008.9 hPa | - | - | - | - |
| 1778157261 | 8.33° C | 37% | 1009 hPa | - | - | - | - |
| 1778156660 | 8.33° C | 38% | 1009 hPa | - | - | - | - |
| 1778156060 | 8.33° C | 37% | 1009 hPa | - | - | - | - |
* Rain since midnight (hover to see other rain measurements)
** Current wind speed in m/s (hover to see current wind gust speed)